WXM80 ListenWXM80 Stop

You find our weather info also at:

UK Metoffice

WeatherCloud

Weather Underground

Northeastern Weather Network

AWEKAS

Citizen Weather Observer Program (CWOP)

HAMweather, WeatherForYou, PWS Weather


Weather Underground History page Text

Daily Summary for February 5, 2017 Units:  Both    English   Metric
« Previous Day
Next Day »
Daily Weekly Monthly Yearly Custom
  High: Low: Average:
Temperature: 43.1 °F /  6.2 °C 28.8 °F /  -1.8 °C 36.7 °F /  2.6 °C
Dew Point: 28.8 °F /  -1.8 °C 13.7 °F /  -10.2 °C 22.4 °F /  -5.3 °C
Humidity: 68 % 44 % 56 %
Wind Speed: 10.4 mph /  16.7 km/h - 3.8 mph /  6.1 km/h
Wind Gust: 19.6 mph /  31.5 km/h - -
Wind:- - WSW
Pressure: 30.23 in /  1023.6 hPa 29.80 in /  1009 hPa -
Precipitation: 0.00 in /  0 mm    
Historical Graphs
 
 
Tabular Data for February 5, 2017
Time Temperature Dew Point Pressure Wind Wind Speed Wind Gust Humidity Rainfall Rate (Hourly)
00:01 31.8 °F /  -0.1 °C 15.3 °F /  -9.3 °C 30.23 in /  1023.6 hPa SW 1.2 mph /  1.9 km/h 3.5 mph /  5.6 km/h 50 % 0.00 in /  0 mm
00:06 31.7 °F /  -0.2 °C 15.2 °F /  -9.3 °C 30.23 in /  1023.6 hPa SW 2.7 mph /  4.3 km/h 3.5 mph /  5.6 km/h 50 % 0.00 in /  0 mm
00:11 31.6 °F /  -0.2 °C 15.1 °F /  -9.4 °C 30.23 in /  1023.6 hPa SW 2.4 mph /  3.9 km/h 5.8 mph /  9.3 km/h 50 % 0.00 in /  0 mm
00:16 31.6 °F /  -0.2 °C 14.6 °F /  -9.7 °C 30.23 in /  1023.6 hPa SW 2.7 mph /  4.3 km/h 3.5 mph /  5.6 km/h 49 % 0.00 in /  0 mm
00:21 31.5 °F /  -0.3 °C 14.5 °F /  -9.7 °C 30.23 in /  1023.6 hPa SW 1.9 mph /  3.1 km/h 3.5 mph /  5.6 km/h 49 % 0.00 in /  0 mm
00:26 31.4 °F /  -0.3 °C 14.4 °F /  -9.8 °C 30.23 in /  1023.6 hPa WSW 1.9 mph /  3.1 km/h 3.5 mph /  5.6 km/h 49 % 0.00 in /  0 mm
00:31 31.4 °F /  -0.3 °C 14.4 °F /  -9.8 °C 30.22 in /  1023.2 hPa SW 2.4 mph /  3.9 km/h 3.5 mph /  5.6 km/h 49 % 0.00 in /  0 mm
00:36 31.3 °F /  -0.4 °C 14.3 °F /  -9.8 °C 30.22 in /  1023.2 hPa SW 0.4 mph /  0.6 km/h 1.2 mph /  1.9 km/h 49 % 0.00 in /  0 mm
00:41 31.2 °F /  -0.4 °C 14.2 °F /  -9.9 °C 30.22 in /  1023.2 hPa SW 0.6 mph /  1 km/h 2.3 mph /  3.7 km/h 49 % 0.00 in /  0 mm
00:46 31.1 °F /  -0.5 °C 14.1 °F /  -9.9 °C 30.21 in /  1022.9 hPa Calm     49 % 0.00 in /  0 mm
00:51 31.1 °F /  -0.5 °C 14.1 °F /  -9.9 °C 30.21 in /  1022.9 hPa SW 0.8 mph /  1.3 km/h 3.5 mph /  5.6 km/h 49 % 0.00 in /  0 mm
00:56 31.0 °F /  -0.6 °C 14.0 °F /  -10 °C 30.22 in /  1023.2 hPa SW 1.1 mph /  1.8 km/h 2.3 mph /  3.7 km/h 49 % 0.00 in /  0 mm
01:01 30.9 °F /  -0.6 °C 14.4 °F /  -9.8 °C 30.22 in /  1023.2 hPa SW 1.2 mph /  1.9 km/h 2.3 mph /  3.7 km/h 50 % 0.00 in /  0 mm
01:06 30.8 °F /  -0.7 °C 14.3 °F /  -9.8 °C 30.22 in /  1023.2 hPa Calm   1.2 mph /  1.9 km/h 50 % 0.00 in /  0 mm
01:11 30.7 °F /  -0.7 °C 14.2 °F /  -9.9 °C 30.21 in /  1022.9 hPa SW 0.1 mph /  0.2 km/h 1.2 mph /  1.9 km/h 50 % 0.00 in /  0 mm
01:16 30.6 °F /  -0.8 °C 14.6 °F /  -9.7 °C 30.21 in /  1022.9 hPa SW 1.3 mph /  2.1 km/h 3.5 mph /  5.6 km/h 51 % 0.00 in /  0 mm
01:21 30.6 °F /  -0.8 °C 14.1 °F /  -9.9 °C 30.21 in /  1022.9 hPa SW 0.1 mph /  0.2 km/h   50 % 0.00 in /  0 mm
01:26 30.5 °F /  -0.8 °C 14.5 °F /  -9.7 °C 30.21 in /  1022.9 hPa SW 0.2 mph /  0.3 km/h 1.2 mph /  1.9 km/h 51 % 0.00 in /  0 mm
01:31 30.4 °F /  -0.9 °C 14.4 °F /  -9.8 °C 30.21 in /  1022.9 hPa SW 0.1 mph /  0.2 km/h 1.0 mph /  1.6 km/h 51 % 0.00 in /  0 mm
01:36 30.3 °F /  -0.9 °C 14.3 °F /  -9.8 °C 30.21 in /  1022.9 hPa SW 0.3 mph /  0.5 km/h 2.3 mph /  3.7 km/h 51 % 0.00 in /  0 mm
01:41 30.2 °F /  -1 °C 14.2 °F /  -9.9 °C 30.21 in /  1022.9 hPa SW 1.6 mph /  2.6 km/h 3.5 mph /  5.6 km/h 51 % 0.00 in /  0 mm
01:46 30.1 °F /  -1.1 °C 14.1 °F /  -9.9 °C 30.21 in /  1022.9 hPa SW 0.1 mph /  0.2 km/h 1.2 mph /  1.9 km/h 51 % 0.00 in /  0 mm
01:51 30.0 °F /  -1.1 °C 14.5 °F /  -9.7 °C 30.21 in /  1022.9 hPa SW 1.4 mph /  2.3 km/h 3.0 mph /  4.8 km/h 52 % 0.00 in /  0 mm
01:56 29.9 °F /  -1.2 °C 14.4 °F /  -9.8 °C 30.21 in /  1022.9 hPa SW 1.4 mph /  2.3 km/h 3.5 mph /  5.6 km/h 52 % 0.00 in /  0 mm
02:01 29.7 °F /  -1.3 °C 14.2 °F /  -9.9 °C 30.21 in /  1022.9 hPa SW 0.1 mph /  0.2 km/h 1.2 mph /  1.9 km/h 52 % 0.00 in /  0 mm
02:06 29.6 °F /  -1.3 °C 14.1 °F /  -9.9 °C 30.20 in /  1022.6 hPa SW 1.0 mph /  1.6 km/h 2.3 mph /  3.7 km/h 52 % 0.00 in /  0 mm
02:12 29.5 °F /  -1.4 °C 14.0 °F /  -10 °C 30.20 in /  1022.6 hPa SW 0.4 mph /  0.6 km/h 2.3 mph /  3.7 km/h 52 % 0.00 in /  0 mm
02:17 29.4 °F /  -1.4 °C 13.9 °F /  -10.1 °C 30.20 in /  1022.6 hPa SW 0.7 mph /  1.1 km/h 2.3 mph /  3.7 km/h 52 % 0.00 in /  0 mm
02:22 29.3 °F /  -1.5 °C 13.8 °F /  -10.1 °C 30.20 in /  1022.6 hPa Calm     52 % 0.00 in /  0 mm
02:27 29.2 °F /  -1.6 °C 13.7 °F /  -10.2 °C 30.20 in /  1022.6 hPa SW 1.2 mph /  1.9 km/h 3.5 mph /  5.6 km/h 52 % 0.00 in /  0 mm
02:32 29.1 °F /  -1.6 °C 14.1 °F /  -9.9 °C 30.19 in /  1022.2 hPa SW 0.5 mph /  0.8 km/h 1.2 mph /  1.9 km/h 53 % 0.00 in /  0 mm
02:37 29.0 °F /  -1.7 °C 14.0 °F /  -10 °C 30.19 in /  1022.2 hPa SW 0.3 mph /  0.5 km/h 1.2 mph /  1.9 km/h 53 % 0.00 in /  0 mm
02:42 29.0 °F /  -1.7 °C 14.0 °F /  -10 °C 30.19 in /  1022.2 hPa SW 0.5 mph /  0.8 km/h 2.3 mph /  3.7 km/h 53 % 0.00 in /  0 mm
02:47 28.9 °F /  -1.7 °C 13.9 °F /  -10.1 °C 30.20 in /  1022.6 hPa SW 0.4 mph /  0.6 km/h 1.2 mph /  1.9 km/h 53 % 0.00 in /  0 mm
02:52 28.8 °F /  -1.8 °C 13.8 °F /  -10.1 °C 30.19 in /  1022.2 hPa SSW 0.1 mph /  0.2 km/h 2.3 mph /  3.7 km/h 53 % 0.00 in /  0 mm
02:57 28.8 °F /  -1.8 °C 14.2 °F /  -9.9 °C 30.19 in /  1022.2 hPa SSW 0.9 mph /  1.4 km/h 3.5 mph /  5.6 km/h 54 % 0.00 in /  0 mm
03:02 28.8 °F /  -1.8 °C 14.2 °F /  -9.9 °C 30.18 in /  1021.9 hPa SSW 1.5 mph /  2.4 km/h 3.0 mph /  4.8 km/h 54 % 0.00 in /  0 mm
03:07 28.8 °F /  -1.8 °C 14.6 °F /  -9.7 °C 30.18 in /  1021.9 hPa SSW 1.2 mph /  1.9 km/h 2.3 mph /  3.7 km/h 55 % 0.00 in /  0 mm
03:12 28.8 °F /  -1.8 °C 15.1 °F /  -9.4 °C 30.18 in /  1021.9 hPa SSW 4.9 mph /  7.9 km/h 6.0 mph /  9.7 km/h 56 % 0.00 in /  0 mm
03:17 28.8 °F /  -1.8 °C 15.1 °F /  -9.4 °C 30.17 in /  1021.6 hPa SSW 1.0 mph /  1.6 km/h 2.3 mph /  3.7 km/h 56 % 0.00 in /  0 mm
03:22 28.9 °F /  -1.7 °C 15.6 °F /  -9.1 °C 30.17 in /  1021.6 hPa SSW 2.5 mph /  4 km/h 3.5 mph /  5.6 km/h 57 % 0.00 in /  0 mm
03:27 28.9 °F /  -1.7 °C 15.6 °F /  -9.1 °C 30.17 in /  1021.6 hPa SW 2.0 mph /  3.2 km/h 3.0 mph /  4.8 km/h 57 % 0.00 in /  0 mm
03:32 29.0 °F /  -1.7 °C 15.7 °F /  -9.1 °C 30.17 in /  1021.6 hPa SW 1.8 mph /  2.9 km/h 3.5 mph /  5.6 km/h 57 % 0.00 in /  0 mm
03:37 29.0 °F /  -1.7 °C 15.7 °F /  -9.1 °C 30.16 in /  1021.2 hPa SW 0.4 mph /  0.6 km/h 3.5 mph /  5.6 km/h 57 % 0.00 in /  0 mm
03:42 29.1 °F /  -1.6 °C 16.1 °F /  -8.8 °C 30.16 in /  1021.2 hPa SW 1.2 mph /  1.9 km/h 3.5 mph /  5.6 km/h 58 % 0.00 in /  0 mm
03:47 29.2 °F /  -1.6 °C 16.2 °F /  -8.8 °C 30.15 in /  1020.9 hPa Calm   3.5 mph /  5.6 km/h 58 % 0.00 in /  0 mm
03:52 29.2 °F /  -1.6 °C 16.2 °F /  -8.8 °C 30.15 in /  1020.9 hPa SW 0.1 mph /  0.2 km/h 1.2 mph /  1.9 km/h 58 % 0.00 in /  0 mm
03:57 29.3 °F /  -1.5 °C 16.3 °F /  -8.7 °C 30.15 in /  1020.9 hPa Calm     58 % 0.00 in /  0 mm
03:58 29.3 °F /  -1.5 °C 16.3 °F /  -8.7 °C 30.15 in /  1020.9 hPa Calm   1.2 mph /  1.9 km/h 58 % 0.00 in /  0 mm
04:03 29.3 °F /  -1.5 °C 16.3 °F /  -8.7 °C 30.15 in /  1020.9 hPa SW 1.0 mph /  1.6 km/h 2.0 mph /  3.2 km/h 58 % 0.00 in /  0 mm
04:08 29.3 °F /  -1.5 °C 16.8 °F /  -8.4 °C 30.15 in /  1020.9 hPa SW 1.0 mph /  1.6 km/h 3.0 mph /  4.8 km/h 59 % 0.00 in /  0 mm
04:13 29.4 °F /  -1.4 °C 16.8 °F /  -8.4 °C 30.14 in /  1020.5 hPa SW 1.0 mph /  1.6 km/h 4.0 mph /  6.4 km/h 59 % 0.00 in /  0 mm
04:18 29.3 °F /  -1.5 °C 16.7 °F /  -8.5 °C 30.14 in /  1020.5 hPa SSW 2.7 mph /  4.3 km/h 3.5 mph /  5.6 km/h 59 % 0.00 in /  0 mm
04:23 29.4 °F /  -1.4 °C 16.8 °F /  -8.4 °C 30.14 in /  1020.5 hPa SW 2.0 mph /  3.2 km/h 7.0 mph /  11.3 km/h 59 % 0.00 in /  0 mm
04:28 29.5 °F /  -1.4 °C 16.9 °F /  -8.4 °C 30.14 in /  1020.5 hPa SW 1.0 mph /  1.6 km/h 5.0 mph /  8 km/h 59 % 0.00 in /  0 mm
04:33 29.6 °F /  -1.3 °C 17.0 °F /  -8.3 °C 30.14 in /  1020.5 hPa SSW 1.0 mph /  1.6 km/h 4.0 mph /  6.4 km/h 59 % 0.00 in /  0 mm
04:38 29.6 °F /  -1.3 °C 17.4 °F /  -8.1 °C 30.14 in /  1020.5 hPa SSW 2.1 mph /  3.4 km/h 4.0 mph /  6.4 km/h 60 % 0.00 in /  0 mm
04:43 29.7 °F /  -1.3 °C 17.5 °F /  -8.1 °C 30.14 in /  1020.5 hPa SSW 1.0 mph /  1.6 km/h 6.0 mph /  9.7 km/h 60 % 0.00 in /  0 mm
04:48 29.8 °F /  -1.2 °C 18.0 °F /  -7.8 °C 30.13 in /  1020.2 hPa SSW 1.0 mph /  1.6 km/h 5.0 mph /  8 km/h 61 % 0.00 in /  0 mm
04:53 29.9 °F /  -1.2 °C 18.1 °F /  -7.7 °C 30.13 in /  1020.2 hPa SSW 2.0 mph /  3.2 km/h 7.0 mph /  11.3 km/h 61 % 0.00 in /  0 mm
04:59 30.1 °F /  -1.1 °C 18.3 °F /  -7.6 °C 30.13 in /  1020.2 hPa SSW 2.3 mph /  3.7 km/h 6.9 mph /  11.1 km/h 61 % 0.00 in /  0 mm
05:04 30.2 °F /  -1 °C 18.4 °F /  -7.6 °C 30.12 in /  1019.9 hPa SSW 2.1 mph /  3.4 km/h 5.0 mph /  8 km/h 61 % 0.00 in /  0 mm
05:09 30.3 °F /  -0.9 °C 18.8 °F /  -7.3 °C 30.12 in /  1019.9 hPa South 2.7 mph /  4.3 km/h 4.6 mph /  7.4 km/h 62 % 0.00 in /  0 mm
05:14 30.4 °F /  -0.9 °C 18.9 °F /  -7.3 °C 30.12 in /  1019.9 hPa SSW 3.3 mph /  5.3 km/h 4.6 mph /  7.4 km/h 62 % 0.00 in /  0 mm
05:19 30.6 °F /  -0.8 °C 18.7 °F /  -7.4 °C 30.12 in /  1019.9 hPa SSW 2.6 mph /  4.2 km/h 3.5 mph /  5.6 km/h 61 % 0.00 in /  0 mm
05:24 30.7 °F /  -0.7 °C 18.8 °F /  -7.3 °C 30.12 in /  1019.9 hPa SSW 2.7 mph /  4.3 km/h 4.6 mph /  7.4 km/h 61 % 0.00 in /  0 mm
05:29 30.7 °F /  -0.7 °C 19.2 °F /  -7.1 °C 30.11 in /  1019.5 hPa SSW 2.5 mph /  4 km/h 4.6 mph /  7.4 km/h 62 % 0.00 in /  0 mm
05:34 30.9 °F /  -0.6 °C 19.4 °F /  -7 °C 30.11 in /  1019.5 hPa South 2.9 mph /  4.7 km/h 4.6 mph /  7.4 km/h 62 % 0.00 in /  0 mm
05:39 31.1 °F /  -0.5 °C 19.6 °F /  -6.9 °C 30.11 in /  1019.5 hPa South 1.6 mph /  2.6 km/h 3.5 mph /  5.6 km/h 62 % 0.00 in /  0 mm
05:44 31.2 °F /  -0.4 °C 19.7 °F /  -6.8 °C 30.10 in /  1019.2 hPa SSW 2.2 mph /  3.5 km/h 3.5 mph /  5.6 km/h 62 % 0.00 in /  0 mm
05:49 31.2 °F /  -0.4 °C 20.1 °F /  -6.6 °C 30.10 in /  1019.2 hPa SSW 2.6 mph /  4.2 km/h 4.6 mph /  7.4 km/h 63 % 0.00 in /  0 mm
05:54 31.4 °F /  -0.3 °C 20.2 °F /  -6.6 °C 30.10 in /  1019.2 hPa South 2.5 mph /  4 km/h 4.6 mph /  7.4 km/h 63 % 0.00 in /  0 mm
05:59 31.4 °F /  -0.3 °C 20.2 °F /  -6.6 °C 30.09 in /  1018.8 hPa SSW 1.8 mph /  2.9 km/h 3.5 mph /  5.6 km/h 63 % 0.00 in /  0 mm
06:04 31.4 °F /  -0.3 °C 20.2 °F /  -6.6 °C 30.09 in /  1018.8 hPa South 2.6 mph /  4.2 km/h 5.8 mph /  9.3 km/h 63 % 0.00 in /  0 mm
06:09 31.4 °F /  -0.3 °C 20.2 °F /  -6.6 °C 30.08 in /  1018.5 hPa South 3.0 mph /  4.8 km/h 4.6 mph /  7.4 km/h 63 % 0.00 in /  0 mm
06:14 31.4 °F /  -0.3 °C 20.6 °F /  -6.3 °C 30.08 in /  1018.5 hPa South 2.9 mph /  4.7 km/h 4.0 mph /  6.4 km/h 64 % 0.00 in /  0 mm
06:19 31.4 °F /  -0.3 °C 20.6 °F /  -6.3 °C 30.08 in /  1018.5 hPa South 2.5 mph /  4 km/h 3.5 mph /  5.6 km/h 64 % 0.00 in /  0 mm
06:24 31.3 °F /  -0.4 °C 20.5 °F /  -6.4 °C 30.08 in /  1018.5 hPa SSW 2.3 mph /  3.7 km/h 3.5 mph /  5.6 km/h 64 % 0.00 in /  0 mm
06:29 31.3 °F /  -0.4 °C 20.5 °F /  -6.4 °C 30.08 in /  1018.5 hPa SW 0.8 mph /  1.3 km/h 2.3 mph /  3.7 km/h 64 % 0.00 in /  0 mm
06:34 31.3 °F /  -0.4 °C 20.9 °F /  -6.2 °C 30.08 in /  1018.5 hPa SSW 2.1 mph /  3.4 km/h 2.3 mph /  3.7 km/h 65 % 0.00 in /  0 mm
06:39 31.3 °F /  -0.4 °C 20.9 °F /  -6.2 °C 30.08 in /  1018.5 hPa SSW 4.6 mph /  7.4 km/h 5.0 mph /  8 km/h 65 % 0.00 in /  0 mm
06:44 31.4 °F /  -0.3 °C 21.0 °F /  -6.1 °C 30.08 in /  1018.5 hPa SSW 2.4 mph /  3.9 km/h 3.5 mph /  5.6 km/h 65 % 0.00 in /  0 mm
06:49 31.4 °F /  -0.3 °C 21.3 °F /  -5.9 °C 30.07 in /  1018.2 hPa SW 3.2 mph /  5.1 km/h 5.8 mph /  9.3 km/h 66 % 0.00 in /  0 mm
06:54 31.5 °F /  -0.3 °C 21.1 °F /  -6.1 °C 30.07 in /  1018.2 hPa South 2.3 mph /  3.7 km/h 5.8 mph /  9.3 km/h 65 % 0.00 in /  0 mm
06:59 31.5 °F /  -0.3 °C 21.4 °F /  -5.9 °C 30.07 in /  1018.2 hPa SSW 2.6 mph /  4.2 km/h 4.6 mph /  7.4 km/h 66 % 0.00 in /  0 mm
07:05 31.6 °F /  -0.2 °C 21.2 °F /  -6 °C 30.07 in /  1018.2 hPa SSW 2.2 mph /  3.5 km/h 4.6 mph /  7.4 km/h 65 % 0.00 in /  0 mm
07:10 31.6 °F /  -0.2 °C 21.2 °F /  -6 °C 30.07 in /  1018.2 hPa SW 2.9 mph /  4.7 km/h 4.0 mph /  6.4 km/h 65 % 0.00 in /  0 mm
07:15 31.7 °F /  -0.2 °C 21.6 °F /  -5.8 °C 30.07 in /  1018.2 hPa SW 3.3 mph /  5.3 km/h 8.0 mph /  12.9 km/h 66 % 0.00 in /  0 mm
07:20 31.8 °F /  -0.1 °C 21.7 °F /  -5.7 °C 30.07 in /  1018.2 hPa SW 5.1 mph /  8.2 km/h 8.1 mph /  13 km/h 66 % 0.00 in /  0 mm
07:25 32.0 °F /  0 °C 21.9 °F /  -5.6 °C 30.07 in /  1018.2 hPa SW 2.8 mph /  4.5 km/h 3.5 mph /  5.6 km/h 66 % 0.00 in /  0 mm
07:30 32.1 °F /  0.1 °C 22.0 °F /  -5.6 °C 30.07 in /  1018.2 hPa SW 3.1 mph /  5 km/h 7.0 mph /  11.3 km/h 66 % 0.00 in /  0 mm
07:35 32.3 °F /  0.2 °C 22.2 °F /  -5.4 °C 30.06 in /  1017.8 hPa SSW 2.1 mph /  3.4 km/h 3.5 mph /  5.6 km/h 66 % 0.00 in /  0 mm
07:40 32.4 °F /  0.2 °C 22.3 °F /  -5.4 °C 30.06 in /  1017.8 hPa SW 4.4 mph /  7.1 km/h 5.8 mph /  9.3 km/h 66 % 0.00 in /  0 mm
07:45 32.5 °F /  0.3 °C 22.4 °F /  -5.3 °C 30.05 in /  1017.5 hPa SSW 3.2 mph /  5.1 km/h 4.6 mph /  7.4 km/h 66 % 0.00 in /  0 mm
07:50 32.7 °F /  0.4 °C 22.6 °F /  -5.2 °C 30.05 in /  1017.5 hPa WSW 1.7 mph /  2.7 km/h 5.0 mph /  8 km/h 66 % 0.00 in /  0 mm
07:55 32.8 °F /  0.4 °C 22.7 °F /  -5.2 °C 30.05 in /  1017.5 hPa SSW 1.4 mph /  2.3 km/h 3.5 mph /  5.6 km/h 66 % 0.00 in /  0 mm
08:00 32.9 °F /  0.5 °C 22.8 °F /  -5.1 °C 30.05 in /  1017.5 hPa SW 1.9 mph /  3.1 km/h 3.5 mph /  5.6 km/h 66 % 0.00 in /  0 mm
08:05 33.1 °F /  0.6 °C 23.0 °F /  -5 °C 30.04 in /  1017.2 hPa WSW 3.0 mph /  4.8 km/h 6.9 mph /  11.1 km/h 66 % 0.00 in /  0 mm
08:10 33.3 °F /  0.7 °C 22.8 °F /  -5.1 °C 30.04 in /  1017.2 hPa SW 2.6 mph /  4.2 km/h 3.5 mph /  5.6 km/h 65 % 0.00 in /  0 mm
08:15 33.5 °F /  0.8 °C 23.0 °F /  -5 °C 30.04 in /  1017.2 hPa SW 4.4 mph /  7.1 km/h 8.1 mph /  13 km/h 65 % 0.00 in /  0 mm
08:20 33.8 °F /  1 °C 22.9 °F /  -5.1 °C 30.03 in /  1016.8 hPa SSW 3.7 mph /  6 km/h 6.9 mph /  11.1 km/h 64 % 0.00 in /  0 mm
08:25 34.2 °F /  1.2 °C 23.3 °F /  -4.8 °C 30.03 in /  1016.8 hPa SSW 6.0 mph /  9.7 km/h 7.0 mph /  11.3 km/h 64 % 0.00 in /  0 mm
08:30 34.7 °F /  1.5 °C 23.0 °F /  -5 °C 30.03 in /  1016.8 hPa SSW 1.8 mph /  2.9 km/h 5.0 mph /  8 km/h 62 % 0.00 in /  0 mm
08:35 35.0 °F /  1.7 °C 22.9 °F /  -5.1 °C 30.02 in /  1016.5 hPa SSW 4.7 mph /  7.6 km/h 6.0 mph /  9.7 km/h 61 % 0.00 in /  0 mm
08:40 35.5 °F /  1.9 °C 23.4 °F /  -4.8 °C 30.02 in /  1016.5 hPa SSW 3.7 mph /  6 km/h 11.5 mph /  18.5 km/h 61 % 0.00 in /  0 mm
08:45 35.9 °F /  2.2 °C 23.7 °F /  -4.6 °C 30.02 in /  1016.5 hPa SW 7.9 mph /  12.7 km/h 11.5 mph /  18.5 km/h 61 % 0.00 in /  0 mm
08:50 36.3 °F /  2.4 °C 23.7 °F /  -4.6 °C 30.02 in /  1016.5 hPa SSW 4.8 mph /  7.7 km/h 10.4 mph /  16.7 km/h 60 % 0.00 in /  0 mm
08:56 36.6 °F /  2.6 °C 23.6 °F /  -4.7 °C 30.02 in /  1016.5 hPa SSW 6.3 mph /  10.1 km/h 11.5 mph /  18.5 km/h 59 % 0.00 in /  0 mm
09:01 36.9 °F /  2.7 °C 23.5 °F /  -4.7 °C 30.01 in /  1016.1 hPa SSW 6.1 mph /  9.8 km/h 11.5 mph /  18.5 km/h 58 % 0.00 in /  0 mm
09:06 37.1 °F /  2.8 °C 23.3 °F /  -4.8 °C 30.01 in /  1016.1 hPa SW 4.2 mph /  6.8 km/h 9.2 mph /  14.8 km/h 57 % 0.00 in /  0 mm
09:11 37.3 °F /  2.9 °C 23.0 °F /  -5 °C 30.00 in /  1015.8 hPa SSW 6.4 mph /  10.3 km/h 12.7 mph /  20.4 km/h 56 % 0.00 in /  0 mm
09:16 37.5 °F /  3.1 °C 22.8 °F /  -5.1 °C 30.00 in /  1015.8 hPa SSW 4.0 mph /  6.4 km/h 11.5 mph /  18.5 km/h 55 % 0.00 in /  0 mm
09:21 37.7 °F /  3.2 °C 22.5 °F /  -5.3 °C 30.00 in /  1015.8 hPa SW 4.6 mph /  7.4 km/h 11.5 mph /  18.5 km/h 54 % 0.00 in /  0 mm
09:26 37.9 °F /  3.3 °C 22.7 °F /  -5.2 °C 30.00 in /  1015.8 hPa SSW 9.0 mph /  14.5 km/h 13.8 mph /  22.2 km/h 54 % 0.00 in /  0 mm
09:31 38.2 °F /  3.4 °C 22.6 °F /  -5.2 °C 30.00 in /  1015.8 hPa West 4.3 mph /  6.9 km/h 11.5 mph /  18.5 km/h 53 % 0.00 in /  0 mm
09:36 38.4 °F /  3.6 °C 22.3 °F /  -5.4 °C 29.99 in /  1015.5 hPa South 6.2 mph /  10 km/h 11.5 mph /  18.5 km/h 52 % 0.00 in /  0 mm
09:41 38.8 °F /  3.8 °C 22.7 °F /  -5.2 °C 29.99 in /  1015.5 hPa South 5.1 mph /  8.2 km/h 8.1 mph /  13 km/h 52 % 0.00 in /  0 mm
09:46 39.2 °F /  4 °C 22.1 °F /  -5.5 °C 29.99 in /  1015.5 hPa WSW 7.3 mph /  11.7 km/h 14.0 mph /  22.5 km/h 50 % 0.00 in /  0 mm
09:51 39.4 °F /  4.1 °C 20.8 °F /  -6.2 °C 29.99 in /  1015.5 hPa SW 6.7 mph /  10.8 km/h 18.4 mph /  29.6 km/h 47 % 0.00 in /  0 mm
09:56 39.7 °F /  4.3 °C 21.1 °F /  -6.1 °C 29.98 in /  1015.1 hPa SSW 10.4 mph /  16.7 km/h 16.0 mph /  25.7 km/h 47 % 0.00 in /  0 mm
10:01 40.1 °F /  4.5 °C 20.4 °F /  -6.4 °C 29.98 in /  1015.1 hPa SW 9.3 mph /  15 km/h 13.0 mph /  20.9 km/h 45 % 0.00 in /  0 mm
10:06 40.3 °F /  4.6 °C 20.6 °F /  -6.3 °C 29.98 in /  1015.1 hPa SW 8.8 mph /  14.2 km/h 18.4 mph /  29.6 km/h 45 % 0.00 in /  0 mm
10:11 40.3 °F /  4.6 °C 20.1 °F /  -6.6 °C 29.98 in /  1015.1 hPa SSW 8.0 mph /  12.9 km/h 16.1 mph /  25.9 km/h 44 % 0.00 in /  0 mm
10:16 40.2 °F /  4.6 °C 20.5 °F /  -6.4 °C 29.98 in /  1015.1 hPa SSW 4.6 mph /  7.4 km/h 4.6 mph /  7.4 km/h 45 % 0.00 in /  0 mm
10:21 40.1 °F /  4.5 °C 20.4 °F /  -6.4 °C 29.98 in /  1015.1 hPa SSW 8.8 mph /  14.2 km/h 12.0 mph /  19.3 km/h 45 % 0.00 in /  0 mm
10:26 40.0 °F /  4.4 °C 20.3 °F /  -6.5 °C 29.97 in /  1014.8 hPa WSW 6.4 mph /  10.3 km/h 15.0 mph /  24.1 km/h 45 % 0.00 in /  0 mm
10:31 40.0 °F /  4.4 °C 20.3 °F /  -6.5 °C 29.97 in /  1014.8 hPa SW 8.4 mph /  13.5 km/h 11.5 mph /  18.5 km/h 45 % 0.00 in /  0 mm
10:36 39.9 °F /  4.4 °C 20.8 °F /  -6.2 °C 29.97 in /  1014.8 hPa SSW 9.6 mph /  15.4 km/h 12.7 mph /  20.4 km/h 46 % 0.00 in /  0 mm
10:42 39.7 °F /  4.3 °C 20.6 °F /  -6.3 °C 29.96 in /  1014.4 hPa SW 7.8 mph /  12.6 km/h 11.5 mph /  18.5 km/h 46 % 0.00 in /  0 mm
10:47 39.7 °F /  4.3 °C 21.1 °F /  -6.1 °C 29.95 in /  1014.1 hPa SW 3.6 mph /  5.8 km/h 8.1 mph /  13 km/h 47 % 0.00 in /  0 mm
10:52 39.8 °F /  4.3 °C 21.2 °F /  -6 °C 29.95 in /  1014.1 hPa WSW 4.9 mph /  7.9 km/h 9.2 mph /  14.8 km/h 47 % 0.00 in /  0 mm
10:57 40.0 °F /  4.4 °C 20.9 °F /  -6.2 °C 29.95 in /  1014.1 hPa WSW 5.0 mph /  8 km/h 8.1 mph /  13 km/h 46 % 0.00 in /  0 mm
11:02 40.0 °F /  4.4 °C 20.9 °F /  -6.2 °C 29.96 in /  1014.4 hPa SW 6.0 mph /  9.7 km/h 12.0 mph /  19.3 km/h 46 % 0.00 in /  0 mm
11:07 40.0 °F /  4.4 °C 20.9 °F /  -6.2 °C 29.95 in /  1014.1 hPa SW 6.7 mph /  10.8 km/h 11.5 mph /  18.5 km/h 46 % 0.00 in /  0 mm
11:12 40.2 °F /  4.6 °C 21.0 °F /  -6.1 °C 29.94 in /  1013.8 hPa SW 9.2 mph /  14.8 km/h 18.4 mph /  29.6 km/h 46 % 0.00 in /  0 mm
11:17 40.1 °F /  4.5 °C 21.0 °F /  -6.1 °C 29.95 in /  1014.1 hPa WSW 9.8 mph /  15.8 km/h 15.0 mph /  24.1 km/h 46 % 0.00 in /  0 mm
11:22 40.0 °F /  4.4 °C 21.4 °F /  -5.9 °C 29.94 in /  1013.8 hPa WSW 8.7 mph /  14 km/h 12.7 mph /  20.4 km/h 47 % 0.00 in /  0 mm
11:27 39.9 °F /  4.4 °C 21.3 °F /  -5.9 °C 29.94 in /  1013.8 hPa WSW 2.9 mph /  4.7 km/h 4.6 mph /  7.4 km/h 47 % 0.00 in /  0 mm
11:32 39.9 °F /  4.4 °C 21.3 °F /  -5.9 °C 29.94 in /  1013.8 hPa SSW 6.6 mph /  10.6 km/h 11.5 mph /  18.5 km/h 47 % 0.00 in /  0 mm
11:37 40.0 °F /  4.4 °C 21.9 °F /  -5.6 °C 29.94 in /  1013.8 hPa WSW 3.6 mph /  5.8 km/h 5.8 mph /  9.3 km/h 48 % 0.00 in /  0 mm
11:42 40.0 °F /  4.4 °C 22.4 °F /  -5.3 °C 29.93 in /  1013.4 hPa West 6.5 mph /  10.5 km/h 11.5 mph /  18.5 km/h 49 % 0.00 in /  0 mm
11:47 40.1 °F /  4.5 °C 22.4 °F /  -5.3 °C 29.93 in /  1013.4 hPa WSW 4.8 mph /  7.7 km/h 9.2 mph /  14.8 km/h 49 % 0.00 in /  0 mm
11:52 40.2 °F /  4.6 °C 22.5 °F /  -5.3 °C 29.92 in /  1013.1 hPa SW 5.9 mph /  9.5 km/h 8.0 mph /  12.9 km/h 49 % 0.00 in /  0 mm
11:57 40.3 °F /  4.6 °C 23.6 °F /  -4.7 °C 29.92 in /  1013.1 hPa West 3.0 mph /  4.8 km/h 5.0 mph /  8 km/h 51 % 0.00 in /  0 mm
12:02 40.4 °F /  4.7 °C 22.7 °F /  -5.2 °C 29.91 in /  1012.8 hPa SW 6.3 mph /  10.1 km/h 9.0 mph /  14.5 km/h 49 % 0.00 in /  0 mm
12:07 40.4 °F /  4.7 °C 22.7 °F /  -5.2 °C 29.91 in /  1012.8 hPa WSW 4.5 mph /  7.2 km/h 9.0 mph /  14.5 km/h 49 % 0.00 in /  0 mm
12:12 40.3 °F /  4.6 °C 22.1 °F /  -5.5 °C 29.91 in /  1012.8 hPa WNW 5.2 mph /  8.4 km/h 9.2 mph /  14.8 km/h 48 % 0.00 in /  0 mm
12:17 40.3 °F /  4.6 °C 22.6 °F /  -5.2 °C 29.90 in /  1012.4 hPa WNW 3.3 mph /  5.3 km/h 6.0 mph /  9.7 km/h 49 % 0.00 in /  0 mm
12:22 40.3 °F /  4.6 °C 22.6 °F /  -5.2 °C 29.90 in /  1012.4 hPa West 4.5 mph /  7.2 km/h 9.2 mph /  14.8 km/h 49 % 0.00 in /  0 mm
12:27 40.3 °F /  4.6 °C 23.1 °F /  -4.9 °C 29.89 in /  1012.1 hPa WSW 3.7 mph /  6 km/h 7.0 mph /  11.3 km/h 50 % 0.00 in /  0 mm
12:33 40.4 °F /  4.7 °C 22.7 °F /  -5.2 °C 29.89 in /  1012.1 hPa SSW 3.1 mph /  5 km/h 5.8 mph /  9.3 km/h 49 % 0.00 in /  0 mm
12:35 40.5 °F /  4.7 °C 22.8 °F /  -5.1 °C 29.89 in /  1012.1 hPa SW 4.7 mph /  7.6 km/h 7.0 mph /  11.3 km/h 49 % 0.00 in /  0 mm
12:40 40.6 °F /  4.8 °C 22.9 °F /  -5.1 °C 29.88 in /  1011.7 hPa West 1.8 mph /  2.9 km/h 3.5 mph /  5.6 km/h 49 % 0.00 in /  0 mm
12:45 40.8 °F /  4.9 °C 23.1 °F /  -4.9 °C 29.87 in /  1011.4 hPa West 4.5 mph /  7.2 km/h 6.9 mph /  11.1 km/h 49 % 0.00 in /  0 mm
12:50 40.9 °F /  4.9 °C 23.2 °F /  -4.9 °C 29.87 in /  1011.4 hPa WNW 5.9 mph /  9.5 km/h 8.1 mph /  13 km/h 49 % 0.00 in /  0 mm
12:55 40.9 °F /  4.9 °C 23.2 °F /  -4.9 °C 29.88 in /  1011.7 hPa WNW 5.2 mph /  8.4 km/h 9.0 mph /  14.5 km/h 49 % 0.00 in /  0 mm
13:00 40.9 °F /  4.9 °C 23.7 °F /  -4.6 °C 29.87 in /  1011.4 hPa WNW 2.6 mph /  4.2 km/h 5.0 mph /  8 km/h 50 % 0.00 in /  0 mm
13:05 40.9 °F /  4.9 °C 23.7 °F /  -4.6 °C 29.86 in /  1011.1 hPa NW 2.0 mph /  3.2 km/h 5.8 mph /  9.3 km/h 50 % 0.00 in /  0 mm
13:10 41.2 °F /  5.1 °C 23.9 °F /  -4.5 °C 29.86 in /  1011.1 hPa WSW 5.1 mph /  8.2 km/h 8.1 mph /  13 km/h 50 % 0.00 in /  0 mm
13:15 41.5 °F /  5.3 °C 26.1 °F /  -3.3 °C 29.86 in /  1011.1 hPa NW 3.2 mph /  5.1 km/h 5.8 mph /  9.3 km/h 54 % 0.00 in /  0 mm
13:20 41.6 °F /  5.3 °C 25.7 °F /  -3.5 °C 29.86 in /  1011.1 hPa WSW 4.5 mph /  7.2 km/h 5.8 mph /  9.3 km/h 53 % 0.00 in /  0 mm
13:25 41.6 °F /  5.3 °C 26.2 °F /  -3.2 °C 29.86 in /  1011.1 hPa West 2.9 mph /  4.7 km/h 6.0 mph /  9.7 km/h 54 % 0.00 in /  0 mm
13:30 41.5 °F /  5.3 °C 25.6 °F /  -3.6 °C 29.85 in /  1010.7 hPa NW 2.9 mph /  4.7 km/h 4.0 mph /  6.4 km/h 53 % 0.00 in /  0 mm
13:35 41.4 °F /  5.2 °C 26.0 °F /  -3.3 °C 29.85 in /  1010.7 hPa WNW 2.6 mph /  4.2 km/h 4.6 mph /  7.4 km/h 54 % 0.00 in /  0 mm
13:40 41.2 °F /  5.1 °C 25.8 °F /  -3.4 °C 29.85 in /  1010.7 hPa WNW 4.9 mph /  7.9 km/h 6.9 mph /  11.1 km/h 54 % 0.00 in /  0 mm
13:45 41.0 °F /  5 °C 26.1 °F /  -3.3 °C 29.85 in /  1010.7 hPa NW 4.2 mph /  6.8 km/h 6.0 mph /  9.7 km/h 55 % 0.00 in /  0 mm
13:50 41.0 °F /  5 °C 26.1 °F /  -3.3 °C 29.84 in /  1010.4 hPa NW 1.9 mph /  3.1 km/h 6.9 mph /  11.1 km/h 55 % 0.00 in /  0 mm
13:56 40.8 °F /  4.9 °C 25.4 °F /  -3.7 °C 29.84 in /  1010.4 hPa West 5.1 mph /  8.2 km/h 6.9 mph /  11.1 km/h 54 % 0.00 in /  0 mm
14:01 40.6 °F /  4.8 °C 25.2 °F /  -3.8 °C 29.84 in /  1010.4 hPa West 6.9 mph /  11.1 km/h 10.4 mph /  16.7 km/h 54 % 0.00 in /  0 mm
14:06 40.0 °F /  4.4 °C 26.0 °F /  -3.3 °C 29.84 in /  1010.4 hPa West 3.6 mph /  5.8 km/h 9.2 mph /  14.8 km/h 57 % 0.00 in /  0 mm
14:11 39.6 °F /  4.2 °C 27.6 °F /  -2.4 °C 29.84 in /  1010.4 hPa West 3.2 mph /  5.1 km/h 8.1 mph /  13 km/h 62 % 0.00 in /  0 mm
14:16 39.1 °F /  3.9 °C 28.3 °F /  -2.1 °C 29.83 in /  1010 hPa West 2.0 mph /  3.2 km/h 3.5 mph /  5.6 km/h 65 % 0.00 in /  0 mm
14:21 38.7 °F /  3.7 °C 28.3 °F /  -2.1 °C 29.82 in /  1009.7 hPa SSW 5.9 mph /  9.5 km/h 10.4 mph /  16.7 km/h 66 % 0.00 in /  0 mm
14:26 38.5 °F /  3.6 °C 28.5 °F /  -1.9 °C 29.82 in /  1009.7 hPa WSW 2.9 mph /  4.7 km/h 5.8 mph /  9.3 km/h 67 % 0.00 in /  0 mm
14:31 38.3 °F /  3.5 °C 28.3 °F /  -2.1 °C 29.82 in /  1009.7 hPa WSW 3.1 mph /  5 km/h 7.0 mph /  11.3 km/h 67 % 0.00 in /  0 mm
14:36 38.1 °F /  3.4 °C 28.5 °F /  -1.9 °C 29.82 in /  1009.7 hPa West 3.0 mph /  4.8 km/h 8.1 mph /  13 km/h 68 % 0.00 in /  0 mm
14:41 38.0 °F /  3.3 °C 28.4 °F /  -2 °C 29.81 in /  1009.4 hPa WSW 3.8 mph /  6.1 km/h 5.0 mph /  8 km/h 68 % 0.00 in /  0 mm
14:46 38.0 °F /  3.3 °C 28.4 °F /  -2 °C 29.81 in /  1009.4 hPa WNW 3.7 mph /  6 km/h 6.9 mph /  11.1 km/h 68 % 0.00 in /  0 mm
14:51 38.1 °F /  3.4 °C 28.5 °F /  -1.9 °C 29.80 in /  1009 hPa West 1.7 mph /  2.7 km/h 3.5 mph /  5.6 km/h 68 % 0.00 in /  0 mm
14:56 38.2 °F /  3.4 °C 28.6 °F /  -1.9 °C 29.80 in /  1009 hPa West 3.8 mph /  6.1 km/h 5.8 mph /  9.3 km/h 68 % 0.00 in /  0 mm
15:01 38.2 °F /  3.4 °C 28.6 °F /  -1.9 °C 29.80 in /  1009 hPa SW 1.6 mph /  2.6 km/h 4.0 mph /  6.4 km/h 68 % 0.00 in /  0 mm
15:06 38.3 °F /  3.5 °C 28.3 °F /  -2.1 °C 29.80 in /  1009 hPa West 3.2 mph /  5.1 km/h 4.0 mph /  6.4 km/h 67 % 0.00 in /  0 mm
15:11 38.4 °F /  3.6 °C 28.8 °F /  -1.8 °C 29.80 in /  1009 hPa West 1.8 mph /  2.9 km/h 4.0 mph /  6.4 km/h 68 % 0.00 in /  0 mm
15:16 38.5 °F /  3.6 °C 28.5 °F /  -1.9 °C 29.80 in /  1009 hPa WSW 2.8 mph /  4.5 km/h 4.0 mph /  6.4 km/h 67 % 0.00 in /  0 mm
15:21 38.6 °F /  3.7 °C 28.6 °F /  -1.9 °C 29.80 in /  1009 hPa West 1.5 mph /  2.4 km/h 4.0 mph /  6.4 km/h 67 % 0.00 in /  0 mm
15:26 38.8 °F /  3.8 °C 28.4 °F /  -2 °C 29.80 in /  1009 hPa WSW 4.6 mph /  7.4 km/h 6.9 mph /  11.1 km/h 66 % 0.00 in /  0 mm
15:31 38.9 °F /  3.8 °C 28.5 °F /  -1.9 °C 29.80 in /  1009 hPa West 3.5 mph /  5.6 km/h 8.1 mph /  13 km/h 66 % 0.00 in /  0 mm
15:37 38.9 °F /  3.8 °C 28.5 °F /  -1.9 °C 29.80 in /  1009 hPa WSW 3.9 mph /  6.3 km/h 4.6 mph /  7.4 km/h 66 % 0.00 in /  0 mm
15:42 38.9 °F /  3.8 °C 28.5 °F /  -1.9 °C 29.80 in /  1009 hPa WSW 3.4 mph /  5.5 km/h 6.9 mph /  11.1 km/h 66 % 0.00 in /  0 mm
15:47 38.9 °F /  3.8 °C 28.5 °F /  -1.9 °C 29.80 in /  1009 hPa WSW 3.2 mph /  5.1 km/h 6.0 mph /  9.7 km/h 66 % 0.00 in /  0 mm
15:52 39.0 °F /  3.9 °C 28.6 °F /  -1.9 °C 29.80 in /  1009 hPa West 4.5 mph /  7.2 km/h 8.1 mph /  13 km/h 66 % 0.00 in /  0 mm
15:57 39.1 °F /  3.9 °C 28.7 °F /  -1.8 °C 29.81 in /  1009.4 hPa WSW 4.1 mph /  6.6 km/h 6.9 mph /  11.1 km/h 66 % 0.00 in /  0 mm
16:02 39.1 °F /  3.9 °C 28.7 °F /  -1.8 °C 29.80 in /  1009 hPa WSW 2.5 mph /  4 km/h 5.8 mph /  9.3 km/h 66 % 0.00 in /  0 mm
16:07 39.2 °F /  4 °C 28.8 °F /  -1.8 °C 29.80 in /  1009 hPa SW 3.4 mph /  5.5 km/h 8.0 mph /  12.9 km/h 66 % 0.00 in /  0 mm
16:12 39.2 °F /  4 °C 28.4 °F /  -2 °C 29.80 in /  1009 hPa WSW 2.0 mph /  3.2 km/h 3.5 mph /  5.6 km/h 65 % 0.00 in /  0 mm
16:17 39.2 °F /  4 °C 28.8 °F /  -1.8 °C 29.80 in /  1009 hPa West 3.4 mph /  5.5 km/h 4.6 mph /  7.4 km/h 66 % 0.00 in /  0 mm
16:22 39.2 °F /  4 °C 28.4 °F /  -2 °C 29.80 in /  1009 hPa WSW 4.0 mph /  6.4 km/h 6.9 mph /  11.1 km/h 65 % 0.00 in /  0 mm
16:27 39.2 °F /  4 °C 28.4 °F /  -2 °C 29.81 in /  1009.4 hPa WSW 1.6 mph /  2.6 km/h 4.6 mph /  7.4 km/h 65 % 0.00 in /  0 mm
16:32 39.2 °F /  4 °C 28.4 °F /  -2 °C 29.81 in /  1009.4 hPa WSW 2.9 mph /  4.7 km/h 4.0 mph /  6.4 km/h 65 % 0.00 in /  0 mm
16:37 39.1 °F /  3.9 °C 28.3 °F /  -2.1 °C 29.81 in /  1009.4 hPa West 1.7 mph /  2.7 km/h 3.5 mph /  5.6 km/h 65 % 0.00 in /  0 mm
16:42 39.1 °F /  3.9 °C 28.3 °F /  -2.1 °C 29.81 in /  1009.4 hPa West 2.7 mph /  4.3 km/h 4.6 mph /  7.4 km/h 65 % 0.00 in /  0 mm
16:47 39.0 °F /  3.9 °C 28.2 °F /  -2.1 °C 29.81 in /  1009.4 hPa WSW 0.9 mph /  1.4 km/h 1.2 mph /  1.9 km/h 65 % 0.00 in /  0 mm
16:52 38.9 °F /  3.8 °C 28.1 °F /  -2.2 °C 29.81 in /  1009.4 hPa West 2.6 mph /  4.2 km/h 3.5 mph /  5.6 km/h 65 % 0.00 in /  0 mm
16:57 38.8 °F /  3.8 °C 28.0 °F /  -2.2 °C 29.81 in /  1009.4 hPa SW 1.0 mph /  1.6 km/h 3.5 mph /  5.6 km/h 65 % 0.00 in /  0 mm
17:02 38.6 °F /  3.7 °C 28.2 °F /  -2.1 °C 29.81 in /  1009.4 hPa SW 2.4 mph /  3.9 km/h 3.5 mph /  5.6 km/h 66 % 0.00 in /  0 mm
17:07 38.5 °F /  3.6 °C 28.1 °F /  -2.2 °C 29.81 in /  1009.4 hPa SW 0.8 mph /  1.3 km/h 2.3 mph /  3.7 km/h 66 % 0.00 in /  0 mm
17:12 38.3 °F /  3.5 °C 27.9 °F /  -2.3 °C 29.81 in /  1009.4 hPa SSW 0.4 mph /  0.6 km/h   66 % 0.00 in /  0 mm
17:17 38.2 °F /  3.4 °C 27.8 °F /  -2.3 °C 29.81 in /  1009.4 hPa SSW 0.5 mph /  0.8 km/h 1.2 mph /  1.9 km/h 66 % 0.00 in /  0 mm
17:22 38.0 °F /  3.3 °C 27.6 °F /  -2.4 °C 29.81 in /  1009.4 hPa SW 1.4 mph /  2.3 km/h 4.0 mph /  6.4 km/h 66 % 0.00 in /  0 mm
17:27 37.7 °F /  3.2 °C 26.6 °F /  -3 °C 29.81 in /  1009.4 hPa WSW 1.0 mph /  1.6 km/h 3.5 mph /  5.6 km/h 64 % 0.00 in /  0 mm
17:28 37.7 °F /  3.2 °C 26.6 °F /  -3 °C 29.81 in /  1009.4 hPa SW 2.0 mph /  3.2 km/h 7.0 mph /  11.3 km/h 64 % 0.00 in /  0 mm
17:33 37.5 °F /  3.1 °C 25.7 °F /  -3.5 °C 29.81 in /  1009.4 hPa SW 3.0 mph /  4.8 km/h 7.0 mph /  11.3 km/h 62 % 0.00 in /  0 mm
17:36 37.5 °F /  3.1 °C 25.3 °F /  -3.7 °C 29.82 in /  1009.7 hPa WSW 2.1 mph /  3.4 km/h 4.0 mph /  6.4 km/h 61 % 0.00 in /  0 mm
17:41 37.5 °F /  3.1 °C 24.9 °F /  -3.9 °C 29.82 in /  1009.7 hPa WSW 5.6 mph /  9 km/h 9.2 mph /  14.8 km/h 60 % 0.00 in /  0 mm
17:46 37.8 °F /  3.2 °C 24.3 °F /  -4.3 °C 29.82 in /  1009.7 hPa WSW 7.3 mph /  11.7 km/h 13.8 mph /  22.2 km/h 58 % 0.00 in /  0 mm
17:51 38.4 °F /  3.6 °C 24.5 °F /  -4.2 °C 29.82 in /  1009.7 hPa WNW 7.4 mph /  11.9 km/h 12.7 mph /  20.4 km/h 57 % 0.00 in /  0 mm
17:56 38.9 °F /  3.8 °C 24.1 °F /  -4.4 °C 29.81 in /  1009.4 hPa WSW 3.8 mph /  6.1 km/h 9.2 mph /  14.8 km/h 55 % 0.00 in /  0 mm
18:01 39.3 °F /  4.1 °C 24.5 °F /  -4.2 °C 29.82 in /  1009.7 hPa SW 6.1 mph /  9.8 km/h 11.5 mph /  18.5 km/h 55 % 0.00 in /  0 mm
18:06 39.6 °F /  4.2 °C 24.3 °F /  -4.3 °C 29.82 in /  1009.7 hPa WSW 4.2 mph /  6.8 km/h 7.0 mph /  11.3 km/h 54 % 0.00 in /  0 mm
18:11 39.8 °F /  4.3 °C 24.5 °F /  -4.2 °C 29.83 in /  1010 hPa SW 5.8 mph /  9.3 km/h 11.5 mph /  18.5 km/h 54 % 0.00 in /  0 mm
18:16 40.2 °F /  4.6 °C 24.4 °F /  -4.2 °C 29.83 in /  1010 hPa West 6.6 mph /  10.6 km/h 13.0 mph /  20.9 km/h 53 % 0.00 in /  0 mm
18:17 40.2 °F /  4.6 °C 24.4 °F /  -4.2 °C 29.83 in /  1010 hPa West 4.7 mph /  7.6 km/h 12.7 mph /  20.4 km/h 53 % 0.00 in /  0 mm
18:22 40.4 °F /  4.7 °C 24.1 °F /  -4.4 °C 29.83 in /  1010 hPa WSW 6.0 mph /  9.7 km/h 13.8 mph /  22.2 km/h 52 % 0.00 in /  0 mm
18:27 40.5 °F /  4.7 °C 24.2 °F /  -4.3 °C 29.83 in /  1010 hPa WNW 5.3 mph /  8.5 km/h 6.9 mph /  11.1 km/h 52 % 0.00 in /  0 mm
18:32 40.6 °F /  4.8 °C 24.3 °F /  -4.3 °C 29.83 in /  1010 hPa West 4.0 mph /  6.4 km/h 8.1 mph /  13 km/h 52 % 0.00 in /  0 mm
18:37 40.5 °F /  4.7 °C 23.8 °F /  -4.6 °C 29.83 in /  1010 hPa WSW 6.1 mph /  9.8 km/h 15.0 mph /  24.1 km/h 51 % 0.00 in /  0 mm
18:42 40.5 °F /  4.7 °C 23.8 °F /  -4.6 °C 29.84 in /  1010.4 hPa SW 3.8 mph /  6.1 km/h 6.9 mph /  11.1 km/h 51 % 0.00 in /  0 mm
18:47 40.4 °F /  4.7 °C 24.1 °F /  -4.4 °C 29.83 in /  1010 hPa WSW 3.6 mph /  5.8 km/h 6.9 mph /  11.1 km/h 52 % 0.00 in /  0 mm
18:52 40.4 °F /  4.7 °C 24.1 °F /  -4.4 °C 29.83 in /  1010 hPa WSW 5.8 mph /  9.3 km/h 10.0 mph /  16.1 km/h 52 % 0.00 in /  0 mm
18:57 40.2 °F /  4.6 °C 24.0 °F /  -4.4 °C 29.84 in /  1010.4 hPa WSW 4.5 mph /  7.2 km/h 8.1 mph /  13 km/h 52 % 0.00 in /  0 mm
19:02 40.2 °F /  4.6 °C 24.0 °F /  -4.4 °C 29.84 in /  1010.4 hPa WSW 7.8 mph /  12.6 km/h 13.8 mph /  22.2 km/h 52 % 0.00 in /  0 mm
19:08 40.1 °F /  4.5 °C 23.9 °F /  -4.5 °C 29.84 in /  1010.4 hPa WNW 7.2 mph /  11.6 km/h 11.0 mph /  17.7 km/h 52 % 0.00 in /  0 mm
19:13 40.1 °F /  4.5 °C 23.9 °F /  -4.5 °C 29.84 in /  1010.4 hPa SW 5.7 mph /  9.2 km/h 11.5 mph /  18.5 km/h 52 % 0.00 in /  0 mm
19:18 40.0 °F /  4.4 °C 23.8 °F /  -4.6 °C 29.84 in /  1010.4 hPa West 5.7 mph /  9.2 km/h 14.0 mph /  22.5 km/h 52 % 0.00 in /  0 mm
19:23 40.0 °F /  4.4 °C 24.2 °F /  -4.3 °C 29.85 in /  1010.7 hPa WSW 4.0 mph /  6.4 km/h 9.2 mph /  14.8 km/h 53 % 0.00 in /  0 mm
19:28 39.9 °F /  4.4 °C 24.1 °F /  -4.4 °C 29.85 in /  1010.7 hPa WSW 3.7 mph /  6 km/h 9.2 mph /  14.8 km/h 53 % 0.00 in /  0 mm
19:33 39.9 °F /  4.4 °C 24.1 °F /  -4.4 °C 29.85 in /  1010.7 hPa WSW 5.7 mph /  9.2 km/h 13.8 mph /  22.2 km/h 53 % 0.00 in /  0 mm
19:38 39.9 °F /  4.4 °C 23.7 °F /  -4.6 °C 29.85 in /  1010.7 hPa West 7.4 mph /  11.9 km/h 11.5 mph /  18.5 km/h 52 % 0.00 in /  0 mm
19:43 39.9 °F /  4.4 °C 23.7 °F /  -4.6 °C 29.85 in /  1010.7 hPa WSW 3.3 mph /  5.3 km/h 6.9 mph /  11.1 km/h 52 % 0.00 in /  0 mm
19:48 40.0 °F /  4.4 °C 23.8 °F /  -4.6 °C 29.85 in /  1010.7 hPa WSW 5.5 mph /  8.9 km/h 7.0 mph /  11.3 km/h 52 % 0.00 in /  0 mm
19:53 40.1 °F /  4.5 °C 24.3 °F /  -4.3 °C 29.85 in /  1010.7 hPa SW 1.1 mph /  1.8 km/h 6.9 mph /  11.1 km/h 53 % 0.00 in /  0 mm
19:58 40.1 °F /  4.5 °C 24.3 °F /  -4.3 °C 29.85 in /  1010.7 hPa SW 7.8 mph /  12.6 km/h 11.5 mph /  18.5 km/h 53 % 0.00 in /  0 mm
20:03 40.2 °F /  4.6 °C 24.0 °F /  -4.4 °C 29.85 in /  1010.7 hPa SW 7.0 mph /  11.3 km/h 10.4 mph /  16.7 km/h 52 % 0.00 in /  0 mm
20:08 40.4 °F /  4.7 °C 24.1 °F /  -4.4 °C 29.85 in /  1010.7 hPa WSW 4.2 mph /  6.8 km/h 8.0 mph /  12.9 km/h 52 % 0.00 in /  0 mm
20:13 40.5 °F /  4.7 °C 24.2 °F /  -4.3 °C 29.85 in /  1010.7 hPa WSW 5.2 mph /  8.4 km/h 11.5 mph /  18.5 km/h 52 % 0.00 in /  0 mm
20:18 40.6 °F /  4.8 °C 24.3 °F /  -4.3 °C 29.85 in /  1010.7 hPa SW 5.2 mph /  8.4 km/h 11.0 mph /  17.7 km/h 52 % 0.00 in /  0 mm
20:23 40.7 °F /  4.8 °C 24.4 °F /  -4.2 °C 29.85 in /  1010.7 hPa WSW 2.6 mph /  4.2 km/h 9.0 mph /  14.5 km/h 52 % 0.00 in /  0 mm
20:28 40.7 °F /  4.8 °C 24.4 °F /  -4.2 °C 29.85 in /  1010.7 hPa WSW 2.8 mph /  4.5 km/h 7.0 mph /  11.3 km/h 52 % 0.00 in /  0 mm
20:33 40.8 °F /  4.9 °C 24.5 °F /  -4.2 °C 29.85 in /  1010.7 hPa West 1.7 mph /  2.7 km/h 5.8 mph /  9.3 km/h 52 % 0.00 in /  0 mm
20:38 40.8 °F /  4.9 °C 25.0 °F /  -3.9 °C 29.85 in /  1010.7 hPa WSW 5.1 mph /  8.2 km/h 11.5 mph /  18.5 km/h 53 % 0.00 in /  0 mm
20:43 40.8 °F /  4.9 °C 25.0 °F /  -3.9 °C 29.85 in /  1010.7 hPa SW 7.7 mph /  12.4 km/h 15.0 mph /  24.1 km/h 53 % 0.00 in /  0 mm
20:48 40.8 °F /  4.9 °C 25.0 °F /  -3.9 °C 29.85 in /  1010.7 hPa WSW 6.0 mph /  9.7 km/h 13.0 mph /  20.9 km/h 53 % 0.00 in /  0 mm
20:53 40.9 °F /  4.9 °C 25.1 °F /  -3.8 °C 29.85 in /  1010.7 hPa SW 8.0 mph /  12.9 km/h 14.0 mph /  22.5 km/h 53 % 0.00 in /  0 mm
20:58 40.9 °F /  4.9 °C 25.1 °F /  -3.8 °C 29.85 in /  1010.7 hPa West 3.5 mph /  5.6 km/h 11.5 mph /  18.5 km/h 53 % 0.00 in /  0 mm
21:04 41.0 °F /  5 °C 25.2 °F /  -3.8 °C 29.84 in /  1010.4 hPa WSW 4.7 mph /  7.6 km/h 11.5 mph /  18.5 km/h 53 % 0.00 in /  0 mm
21:09 41.0 °F /  5 °C 25.2 °F /  -3.8 °C 29.85 in /  1010.7 hPa SW 5.4 mph /  8.7 km/h 10.4 mph /  16.7 km/h 53 % 0.00 in /  0 mm
21:14 41.0 °F /  5 °C 25.6 °F /  -3.6 °C 29.84 in /  1010.4 hPa SW 8.2 mph /  13.2 km/h 13.8 mph /  22.2 km/h 54 % 0.00 in /  0 mm
21:19 41.1 °F /  5.1 °C 25.7 °F /  -3.5 °C 29.85 in /  1010.7 hPa SSW 4.6 mph /  7.4 km/h 16.1 mph /  25.9 km/h 54 % 0.00 in /  0 mm
21:24 41.1 °F /  5.1 °C 25.7 °F /  -3.5 °C 29.85 in /  1010.7 hPa SSW 5.6 mph /  9 km/h 9.0 mph /  14.5 km/h 54 % 0.00 in /  0 mm
21:29 41.1 °F /  5.1 °C 25.7 °F /  -3.5 °C 29.85 in /  1010.7 hPa SW 5.5 mph /  8.9 km/h 9.2 mph /  14.8 km/h 54 % 0.00 in /  0 mm
21:34 41.1 °F /  5.1 °C 26.1 °F /  -3.3 °C 29.85 in /  1010.7 hPa West 5.2 mph /  8.4 km/h 9.2 mph /  14.8 km/h 55 % 0.00 in /  0 mm
21:39 41.2 °F /  5.1 °C 26.2 °F /  -3.2 °C 29.85 in /  1010.7 hPa SW 8.0 mph /  12.9 km/h 15.0 mph /  24.1 km/h 55 % 0.00 in /  0 mm
21:44 41.3 °F /  5.2 °C 26.3 °F /  -3.2 °C 29.85 in /  1010.7 hPa SW 4.8 mph /  7.7 km/h 12.0 mph /  19.3 km/h 55 % 0.00 in /  0 mm
21:49 41.5 °F /  5.3 °C 26.5 °F /  -3.1 °C 29.85 in /  1010.7 hPa SW 8.2 mph /  13.2 km/h 11.5 mph /  18.5 km/h 55 % 0.00 in /  0 mm
21:54 41.6 °F /  5.3 °C 26.6 °F /  -3 °C 29.85 in /  1010.7 hPa SSW 6.6 mph /  10.6 km/h 13.8 mph /  22.2 km/h 55 % 0.00 in /  0 mm
21:59 41.8 °F /  5.4 °C 26.8 °F /  -2.9 °C 29.85 in /  1010.7 hPa WSW 5.7 mph /  9.2 km/h 11.5 mph /  18.5 km/h 55 % 0.00 in /  0 mm
22:04 42.1 °F /  5.6 °C 27.1 °F /  -2.7 °C 29.85 in /  1010.7 hPa SSW 7.2 mph /  11.6 km/h 12.7 mph /  20.4 km/h 55 % 0.00 in /  0 mm
22:09 42.2 °F /  5.7 °C 26.7 °F /  -2.9 °C 29.86 in /  1011.1 hPa WSW 7.7 mph /  12.4 km/h 9.2 mph /  14.8 km/h 54 % 0.00 in /  0 mm
22:14 42.4 °F /  5.8 °C 26.9 °F /  -2.8 °C 29.86 in /  1011.1 hPa WNW 4.3 mph /  6.9 km/h 11.5 mph /  18.5 km/h 54 % 0.00 in /  0 mm
22:19 42.6 °F /  5.9 °C 27.1 °F /  -2.7 °C 29.86 in /  1011.1 hPa SW 3.5 mph /  5.6 km/h 15.0 mph /  24.1 km/h 54 % 0.00 in /  0 mm
22:24 42.7 °F /  5.9 °C 27.2 °F /  -2.7 °C 29.86 in /  1011.1 hPa WSW 6.4 mph /  10.3 km/h 11.5 mph /  18.5 km/h 54 % 0.00 in /  0 mm
22:29 42.8 °F /  6 °C 27.3 °F /  -2.6 °C 29.86 in /  1011.1 hPa WSW 8.1 mph /  13 km/h 15.0 mph /  24.1 km/h 54 % 0.00 in /  0 mm
22:34 42.9 °F /  6.1 °C 27.4 °F /  -2.6 °C 29.86 in /  1011.1 hPa West 6.4 mph /  10.3 km/h 13.0 mph /  20.9 km/h 54 % 0.00 in /  0 mm
22:39 42.9 °F /  6.1 °C 27.4 °F /  -2.6 °C 29.86 in /  1011.1 hPa WSW 6.3 mph /  10.1 km/h 12.7 mph /  20.4 km/h 54 % 0.00 in /  0 mm
22:44 42.9 °F /  6.1 °C 27.8 °F /  -2.3 °C 29.87 in /  1011.4 hPa NW 7.9 mph /  12.7 km/h 15.0 mph /  24.1 km/h 55 % 0.00 in /  0 mm
22:49 43.0 °F /  6.1 °C 27.9 °F /  -2.3 °C 29.87 in /  1011.4 hPa West 9.3 mph /  15 km/h 14.0 mph /  22.5 km/h 55 % 0.00 in /  0 mm
22:54 43.0 °F /  6.1 °C 27.9 °F /  -2.3 °C 29.87 in /  1011.4 hPa SSW 5.6 mph /  9 km/h 13.8 mph /  22.2 km/h 55 % 0.00 in /  0 mm
22:59 43.1 °F /  6.2 °C 27.6 °F /  -2.4 °C 29.87 in /  1011.4 hPa WSW 7.8 mph /  12.6 km/h 19.6 mph /  31.5 km/h 54 % 0.00 in /  0 mm
23:05 43.1 °F /  6.2 °C 27.6 °F /  -2.4 °C 29.87 in /  1011.4 hPa WSW 6.0 mph /  9.7 km/h 15.0 mph /  24.1 km/h 54 % 0.00 in /  0 mm
23:10 43.1 °F /  6.2 °C 28.0 °F /  -2.2 °C 29.87 in /  1011.4 hPa WNW 6.9 mph /  11.1 km/h 13.8 mph /  22.2 km/h 55 % 0.00 in /  0 mm
23:15 43.1 °F /  6.2 °C 28.0 °F /  -2.2 °C 29.87 in /  1011.4 hPa WNW 5.8 mph /  9.3 km/h 11.5 mph /  18.5 km/h 55 % 0.00 in /  0 mm
23:20 43.0 °F /  6.1 °C 27.9 °F /  -2.3 °C 29.87 in /  1011.4 hPa WSW 8.0 mph /  12.9 km/h 12.7 mph /  20.4 km/h 55 % 0.00 in /  0 mm
23:25 43.0 °F /  6.1 °C 27.5 °F /  -2.5 °C 29.87 in /  1011.4 hPa West 8.3 mph /  13.4 km/h 14.0 mph /  22.5 km/h 54 % 0.00 in /  0 mm
23:30 42.9 °F /  6.1 °C 27.4 °F /  -2.6 °C 29.87 in /  1011.4 hPa WSW 6.7 mph /  10.8 km/h 11.0 mph /  17.7 km/h 54 % 0.00 in /  0 mm
23:35 42.9 °F /  6.1 °C 27.8 °F /  -2.3 °C 29.87 in /  1011.4 hPa West 7.5 mph /  12.1 km/h 12.7 mph /  20.4 km/h 55 % 0.00 in /  0 mm
23:40 42.8 °F /  6 °C 27.3 °F /  -2.6 °C 29.87 in /  1011.4 hPa WNW 6.3 mph /  10.1 km/h 12.7 mph /  20.4 km/h 54 % 0.00 in /  0 mm
23:45 42.8 °F /  6 °C 27.3 °F /  -2.6 °C 29.87 in /  1011.4 hPa WNW 7.8 mph /  12.6 km/h 19.6 mph /  31.5 km/h 54 % 0.00 in /  0 mm
23:50 42.8 °F /  6 °C 27.3 °F /  -2.6 °C 29.87 in /  1011.4 hPa WNW 7.3 mph /  11.7 km/h 13.8 mph /  22.2 km/h 54 % 0.00 in /  0 mm
23:55 42.7 °F /  5.9 °C 27.2 °F /  -2.7 °C 29.87 in /  1011.4 hPa WSW 7.9 mph /  12.7 km/h 16.1 mph /  25.9 km/h 54 % 0.00 in /  0 mm
Crab Meadow Weather
Compliments of Weather Underground - 3 mb

Script developed by  Jim McMurry - jmcmurry@mwt.net Adapted for the template by  Wim van der Kuil - Leuven-Template.eu

Weather Terms: Downburst - A strong downdraft from a thunderstorm resulting in an outward burst of damaging winds on or near the ground. Downburst winds are often 50 to 100 mph and in a few cases, 100 to 150 mph. They can do as much damage as a small tornado.